Grayville, IL

1:55 PM CST on March 05, 2015 (GMT -0600)
North of Baker's Garage | Change Station
CLOSE
Current Station
Personal Weather Station
Location: Albion, IL
Elevation: 490 ft
Nearby Weather Stations

Elev 490 ft 38.26 °N, 88.07 °W | Updated 16 seconds ago

Clear
Clear
25.5 °F
Feels Like 26 °F
N
3.0
Wind Variable Wind from NNW
Gusts 4.0 mph

Today
High -- | Low -- °F
--% Chance of Precip.
Yesterday
High -- | Low -- °F
Precip. -- in
6:18 AM 5:49 PM
Full, 100% visible
Pressure 30.52 in
Visibility 10.0 miles
Clouds Clear
Windchill 26 °F
Dew Point 11 °F
Humidity 53%
Rainfall in
Snow Depth Not available.
UV 5 out of 12
Pollen .70 out of 12
Air Quality Not available.
Flu Activity Not available.
METAR KFWC 051935Z AUTO 35010KT 10SM CLR M06/M15 A3052 RMK AO1 T10601149

More Conditions Fewer Conditions

Pressure 30.52 in
Visibility 10.0 miles
Clouds Clear
Windchill 26 °F
Dew Point 11 °F
Humidity 53%
Rainfall in
Snow Depth Not available.
UV 5 out of 12
Pollen .70 out of 12
Air Quality Not available.
Flu Activity Not available.
METAR KFWC 051935Z AUTO 35010KT 10SM CLR M06/M15 A3052 RMK AO1 T10601149

More Conditions Fewer Conditions

10-Day Weather Forecast

Almanac

Astronomy

Mar. 05, 2015 Rise Set
Actual Time
Civil Twilight
Nautical Twilight
Astronomical Twilight
Moon
Length of Visible Light
Length of Day
Tomorrow will be .
, % of the Moon is Illuminated

Today's Extremes

State Highs State Lows

Community

WunderPhotos

Upload Photos

1,802,929 photos uploaded!

WunderBlogs® & News

Nearby

Air Quality

  Air Quality AQ Index Pollutant
Not available.

Snow Depth

Station Depth Elevation

Earthquake Activity

City Distance Mag. Time & Date
Minimum magnitude displayed is 2.5.

Coastal Water Temperatures

Place Temperature

Nearby Weather Stations